Nashville, TN (37235)

5:30 AM CST on February 01, 2015 (GMT -0600)
APRSWXNET Nashville TN US | Change Station
CLOSE
Current Station
Personal Weather Station
Location: Nashville, TN
Elevation: 728 ft
Nearby Weather Stations
Active Advisory: Special Statement

Elev 728 ft 36.14 °N, 86.80 °W | Updated 30 minutes ago

Overcast
Overcast
50 °F
Feels Like 45 °F
N
12
Wind Variable Wind from SE
Gusts 20.0 mph

Today
High -- | Low -- °F
--% Chance of Precip.
Yesterday
High -- | Low -- °F
Precip. -- in
6:48 AM 5:13 PM
Waxing Gibbous, 94% visible
Pressure 30.05 in
Visibility 10.0 miles
Clouds Overcast 11000 ft
Windchill 45 °F
Dew Point 23 °F
Humidity 34%
Rainfall 0.00 in
Snow Depth Not available.
UV 0 out of 12
Pollen .80 out of 12
Air Quality Not available.
Flu Activity Not available.
METAR KBNA 011053Z 16008KT 10SM OVC110 08/M06 A3005 RMK AO2 SLP174 T00831061

More Conditions Fewer Conditions

Pressure 30.05 in
Visibility 10.0 miles
Clouds Overcast 11000 ft
Windchill 45 °F
Dew Point 23 °F
Humidity 34%
Rainfall 0.00 in
Snow Depth Not available.
UV 0 out of 12
Pollen .80 out of 12
Air Quality Not available.
Flu Activity Not available.
METAR KBNA 011053Z 16008KT 10SM OVC110 08/M06 A3005 RMK AO2 SLP174 T00831061

More Conditions Fewer Conditions

10-Day Weather Forecast

Almanac

Astronomy

Feb. 01, 2015 Rise Set
Actual Time
Civil Twilight
Nautical Twilight
Astronomical Twilight
Moon
Length of Visible Light
Length of Day
Tomorrow will be .
, % of the Moon is Illuminated

Today's Extremes

State Highs State Lows

Community

WunderPhotos

Upload Photos

1,792,345 photos uploaded!

WunderBlogs® & News

Nearby

Air Quality

  Air Quality AQ Index Pollutant
Not available.

Snow Depth

Station Depth Elevation

Earthquake Activity

City Distance Mag. Time & Date
Minimum magnitude displayed is 2.5.

Coastal Water Temperatures

Place Temperature

Nearby Weather Stations